createdAt,value
2018-06-21T00:02:06.142Z,8.90
2018-06-21T00:04:35.182Z,8.70
2018-06-21T00:07:04.275Z,8.97
2018-06-21T00:09:33.561Z,8.40
2018-06-21T00:12:02.734Z,8.20
2018-06-21T00:14:31.822Z,8.97
2018-06-21T00:17:00.941Z,9.33
2018-06-21T00:19:30.090Z,9.77
2018-06-21T00:21:59.196Z,8.73
2018-06-21T00:24:28.407Z,9.03
2018-06-21T00:26:57.543Z,9.60
2018-06-21T00:29:26.840Z,10.00
2018-06-21T00:31:56.031Z,9.17
2018-06-21T00:34:25.174Z,8.63
2018-06-21T00:36:54.321Z,8.80
2018-06-21T00:39:23.534Z,8.70
2018-06-21T00:41:52.721Z,8.57
2018-06-21T00:44:21.917Z,9.37
2018-06-21T00:46:51.025Z,9.33
2018-06-21T00:49:20.220Z,9.60
2018-06-21T00:51:49.266Z,9.10
2018-06-21T00:54:18.438Z,8.77
2018-06-21T00:56:47.586Z,8.77
2018-06-21T00:59:16.734Z,8.70
2018-06-21T01:01:45.985Z,9.40
2018-06-21T01:04:15.194Z,8.90
2018-06-21T01:06:44.280Z,9.67
2018-06-21T01:09:13.465Z,10.77
2018-06-21T01:11:42.614Z,10.67
2018-06-21T01:14:11.885Z,9.93
2018-06-21T01:16:41.090Z,11.07
2018-06-21T01:19:10.233Z,9.27
2018-06-21T01:21:39.346Z,9.10
2018-06-21T01:24:08.506Z,10.00
2018-06-21T01:26:37.642Z,10.70
2018-06-21T01:29:06.731Z,9.80
2018-06-21T01:31:35.900Z,10.13
2018-06-21T01:34:05.086Z,9.50
2018-06-21T01:36:34.266Z,9.70
2018-06-21T01:39:03.492Z,10.10
2018-06-21T01:41:32.553Z,9.80
2018-06-21T01:44:01.734Z,9.90
2018-06-21T01:46:31.010Z,10.47
2018-06-21T01:49:00.190Z,9.50
2018-06-21T01:51:29.350Z,10.37
2018-06-21T01:53:58.540Z,9.30
2018-06-21T01:56:27.746Z,9.50
2018-06-21T01:58:56.934Z,9.40
2018-06-21T02:01:26.195Z,8.90
2018-06-21T02:03:55.406Z,11.33
2018-06-21T02:06:24.550Z,10.33
2018-06-21T02:08:53.768Z,10.93
2018-06-21T02:11:22.907Z,9.50
2018-06-21T02:13:51.987Z,9.13
2018-06-21T02:16:21.154Z,9.70
2018-06-21T02:18:50.402Z,8.87
2018-06-21T02:21:19.562Z,9.40
2018-06-21T02:23:48.695Z,9.87
2018-06-21T02:26:17.910Z,9.93
2018-06-21T02:28:47.194Z,8.63
2018-06-21T02:31:16.431Z,9.03
2018-06-21T02:33:45.601Z,8.20
2018-06-21T02:36:14.876Z,9.20
2018-06-21T02:38:44.067Z,7.93
2018-06-21T02:41:13.257Z,9.80
2018-06-21T02:43:42.484Z,8.60
2018-06-21T02:46:12.957Z,9.03
2018-06-21T02:48:42.035Z,8.80
2018-06-21T02:51:11.284Z,9.53
2018-06-21T02:53:40.402Z,8.70
2018-06-21T02:56:09.693Z,9.30
2018-06-21T02:58:39.005Z,9.90
2018-06-21T03:01:08.139Z,8.87
2018-06-21T03:03:37.343Z,9.63
2018-06-21T03:06:06.476Z,9.47
2018-06-21T03:08:35.584Z,8.97
2018-06-21T03:11:04.761Z,9.00
2018-06-21T03:13:33.967Z,9.13
2018-06-21T03:16:03.247Z,8.43
2018-06-21T03:18:32.430Z,9.20
2018-06-21T03:21:01.634Z,9.47
2018-06-21T03:23:30.871Z,8.60
2018-06-21T03:26:00.126Z,9.13
2018-06-21T03:28:29.291Z,8.10
2018-06-21T03:30:58.426Z,8.27
2018-06-21T03:33:27.517Z,8.10
2018-06-21T03:35:56.659Z,8.37
2018-06-21T03:38:25.780Z,8.10
2018-06-21T03:40:54.926Z,8.50
2018-06-21T03:43:24.035Z,7.37
2018-06-21T03:45:53.286Z,7.67
2018-06-21T03:48:22.464Z,7.63
2018-06-21T03:50:57.749Z,7.90
2018-06-21T03:53:26.849Z,8.40
2018-06-21T03:55:56.011Z,8.07
2018-06-21T03:58:25.095Z,7.90
2018-06-21T04:00:54.362Z,9.20
2018-06-21T04:03:23.598Z,7.40
2018-06-21T04:05:52.753Z,8.63
2018-06-21T04:08:22.049Z,8.63
2018-06-21T04:10:51.145Z,8.40
2018-06-21T04:13:20.390Z,8.10
2018-06-21T04:15:49.550Z,8.30
2018-06-21T04:18:22.820Z,7.97
2018-06-21T04:20:51.989Z,8.07
2018-06-21T04:23:21.146Z,9.50
2018-06-21T04:25:50.245Z,8.40
2018-06-21T04:28:20.728Z,8.43
2018-06-21T04:30:49.864Z,8.37
2018-06-21T04:33:19.158Z,8.07
2018-06-21T04:35:48.527Z,7.50
2018-06-21T04:38:17.777Z,7.90
2018-06-21T04:40:47.030Z,7.07
2018-06-21T04:43:24.329Z,7.20
2018-06-21T04:45:53.972Z,7.90
2018-06-21T04:48:23.125Z,7.70
2018-06-21T04:50:52.228Z,7.70
2018-06-21T04:53:21.378Z,7.50
2018-06-21T04:55:50.510Z,8.57
2018-06-21T04:58:19.770Z,7.00
2018-06-21T05:00:48.937Z,7.50
2018-06-21T05:03:18.203Z,7.80
2018-06-21T05:05:47.522Z,7.60
2018-06-21T05:08:16.790Z,6.87
2018-06-21T05:10:45.899Z,6.97
2018-06-21T05:13:15.014Z,7.07
2018-06-21T05:15:44.193Z,6.97
2018-06-21T05:18:13.397Z,7.17
2018-06-21T05:20:42.501Z,8.23
2018-06-21T05:23:11.678Z,6.80
2018-06-21T05:25:40.827Z,7.93
2018-06-21T05:28:10.014Z,8.23
2018-06-21T05:30:39.237Z,6.97
2018-06-21T05:33:08.564Z,7.73
2018-06-21T05:35:37.725Z,6.90
2018-06-21T05:38:06.929Z,6.80
2018-06-21T05:40:37.057Z,6.20
2018-06-21T05:43:06.310Z,7.90
2018-06-21T05:45:35.718Z,6.50
2018-06-21T05:48:05.102Z,7.50
2018-06-21T05:50:34.921Z,7.20
2018-06-21T05:53:04.146Z,7.33
2018-06-21T05:55:34.074Z,7.80
2018-06-21T05:58:03.198Z,6.77
2018-06-21T06:00:32.332Z,6.93
2018-06-21T06:03:01.519Z,6.93
2018-06-21T06:05:30.722Z,6.40
2018-06-21T06:07:59.877Z,6.30
2018-06-21T06:10:29.029Z,7.70
2018-06-21T06:12:58.122Z,11.10
2018-06-21T06:15:27.283Z,7.13
2018-06-21T06:17:56.466Z,7.43
2018-06-21T06:20:25.634Z,7.30
2018-06-21T06:22:54.740Z,7.60
2018-06-21T06:25:23.909Z,6.97
2018-06-21T06:27:53.076Z,7.33
2018-06-21T06:30:22.329Z,7.07
2018-06-21T06:32:51.322Z,6.90
2018-06-21T06:35:20.442Z,6.60
2018-06-21T06:37:49.634Z,6.50
2018-06-21T06:40:18.788Z,6.47
2018-06-21T06:42:47.898Z,5.83
2018-06-21T06:45:17.065Z,5.37
2018-06-21T06:47:46.302Z,5.37
2018-06-21T06:50:15.444Z,6.30
2018-06-21T06:52:44.554Z,5.93
2018-06-21T06:55:13.708Z,5.43
2018-06-21T06:57:42.862Z,5.30
2018-06-21T07:00:11.941Z,6.53
2018-06-21T07:02:41.091Z,5.87
2018-06-21T07:05:10.182Z,6.80
2018-06-21T07:07:39.322Z,6.27
2018-06-21T07:10:08.518Z,6.10
2018-06-21T07:12:37.886Z,6.47
2018-06-21T07:15:07.090Z,5.37
2018-06-21T07:17:36.237Z,5.97
2018-06-21T07:20:05.363Z,5.83
2018-06-21T07:22:34.482Z,6.40
2018-06-21T07:25:03.637Z,10.93
2018-06-21T07:27:32.782Z,6.13
2018-06-21T07:30:02.007Z,6.50
2018-06-21T07:32:31.196Z,6.60
2018-06-21T07:35:00.457Z,5.80
2018-06-21T07:37:29.894Z,6.33
2018-06-21T07:39:59.088Z,7.10
2018-06-21T07:42:28.339Z,6.97
2018-06-21T07:44:57.440Z,5.90
2018-06-21T07:47:26.541Z,5.37
2018-06-21T07:49:55.746Z,7.17
2018-06-21T07:52:24.874Z,6.57
2018-06-21T07:54:54.002Z,6.50
2018-06-21T07:57:23.095Z,5.80
2018-06-21T07:59:52.250Z,6.07
2018-06-21T08:02:21.709Z,6.03
2018-06-21T08:04:50.786Z,5.70
2018-06-21T08:07:19.938Z,5.40
2018-06-21T08:09:49.088Z,5.60
2018-06-21T08:12:18.243Z,5.80
2018-06-21T08:14:47.474Z,5.53
2018-06-21T08:17:16.598Z,5.77
2018-06-21T08:19:45.839Z,6.03
2018-06-21T08:22:15.067Z,6.60
2018-06-21T08:24:44.194Z,6.63
2018-06-21T08:27:13.394Z,6.30
2018-06-21T08:29:42.530Z,5.80
2018-06-21T08:32:11.780Z,6.27
2018-06-21T08:34:40.941Z,5.93
2018-06-21T08:37:10.090Z,5.77
2018-06-21T08:39:39.256Z,5.63
2018-06-21T08:42:08.308Z,5.63
2018-06-21T08:44:37.465Z,5.83
2018-06-21T08:47:06.518Z,6.10
2018-06-21T08:49:35.739Z,5.50
2018-06-21T08:52:04.867Z,5.63
2018-06-21T08:54:33.970Z,5.87
2018-06-21T08:57:03.127Z,6.07
2018-06-21T08:59:32.233Z,6.50
2018-06-21T09:02:01.319Z,6.00
2018-06-21T09:04:30.481Z,5.87
2018-06-21T09:06:59.642Z,6.43
2018-06-21T09:09:28.697Z,6.30
2018-06-21T09:11:57.922Z,7.07
2018-06-21T09:14:27.026Z,5.70
2018-06-21T09:16:56.243Z,6.40
2018-06-21T09:19:25.394Z,6.00
2018-06-21T09:21:54.565Z,6.33
2018-06-21T09:24:23.565Z,6.07
2018-06-21T09:26:52.777Z,6.40
2018-06-21T09:29:21.965Z,6.03
2018-06-21T09:31:50.818Z,5.40
2018-06-21T09:34:20.077Z,5.80
2018-06-21T09:36:49.346Z,6.70
2018-06-21T09:39:23.689Z,6.10
2018-06-21T09:41:58.315Z,5.83
2018-06-21T09:44:33.258Z,6.30
2018-06-21T09:47:07.708Z,6.43
2018-06-21T09:49:36.953Z,5.50
2018-06-21T09:52:06.744Z,6.33
2018-06-21T09:54:35.978Z,5.83
2018-06-21T09:57:05.201Z,6.37
2018-06-21T09:59:34.378Z,6.70
2018-06-21T10:02:03.599Z,6.80
2018-06-21T10:04:32.807Z,6.80
2018-06-21T10:07:02.086Z,7.20
2018-06-21T10:09:31.178Z,7.50
2018-06-21T10:12:00.384Z,6.50
2018-06-21T10:14:29.501Z,6.80
2018-06-21T10:16:58.687Z,6.93
2018-06-21T10:19:27.858Z,6.57
2018-06-21T10:21:57.018Z,7.70
2018-06-21T10:24:26.133Z,6.60
2018-06-21T10:26:55.317Z,6.50
2018-06-21T10:29:24.525Z,7.90
2018-06-21T10:31:53.646Z,7.47
2018-06-21T10:34:22.761Z,6.70
2018-06-21T10:36:51.882Z,7.13
2018-06-21T10:39:20.985Z,7.40
2018-06-21T10:41:50.085Z,6.60
2018-06-21T10:44:19.307Z,5.90
2018-06-21T10:46:48.478Z,5.53
2018-06-21T10:49:17.622Z,5.80
2018-06-21T10:51:46.806Z,6.80
2018-06-21T10:54:15.934Z,6.10
2018-06-21T10:56:45.011Z,6.67
2018-06-21T10:59:14.260Z,5.33
2018-06-21T11:01:43.270Z,5.87
2018-06-21T11:04:12.362Z,5.60
2018-06-21T11:06:41.587Z,5.40
2018-06-21T11:09:10.677Z,5.83
2018-06-21T11:11:39.794Z,5.40
2018-06-21T11:14:09.018Z,4.40
2018-06-21T11:16:38.230Z,5.07
2018-06-21T11:19:07.339Z,5.20
2018-06-21T11:21:36.526Z,5.33
2018-06-21T11:24:05.765Z,5.13
2018-06-21T11:26:34.937Z,4.77
2018-06-21T11:29:04.054Z,5.47
2018-06-21T11:31:33.218Z,5.80
2018-06-21T11:34:02.402Z,5.60
2018-06-21T11:36:31.596Z,5.27
2018-06-21T11:39:00.766Z,4.90
2018-06-21T11:41:29.893Z,6.97
2018-06-21T11:43:59.152Z,5.87
2018-06-21T11:46:28.326Z,5.67
2018-06-21T11:48:57.629Z,5.83
2018-06-21T11:51:26.791Z,16.63
2018-06-21T11:53:56.085Z,5.57
2018-06-21T11:56:25.266Z,5.60
2018-06-21T11:58:54.325Z,5.70
2018-06-21T12:01:23.522Z,5.90
2018-06-21T12:03:52.674Z,5.10
2018-06-21T12:06:21.838Z,5.77
2018-06-21T12:08:51.003Z,6.57
2018-06-21T12:11:20.281Z,5.80
2018-06-21T12:13:49.427Z,6.03
2018-06-21T12:16:18.606Z,6.77
2018-06-21T12:18:47.672Z,6.87
2018-06-21T12:21:16.768Z,6.70
2018-06-21T12:23:45.921Z,6.67
2018-06-21T12:26:15.063Z,6.27
2018-06-21T12:28:44.189Z,5.40
2018-06-21T12:31:13.299Z,5.40
2018-06-21T12:33:42.475Z,5.10
2018-06-21T12:36:11.607Z,5.13
2018-06-21T12:38:40.800Z,5.40
2018-06-21T12:41:09.929Z,6.20
2018-06-21T12:43:39.180Z,6.20
2018-06-21T12:46:08.258Z,6.47
2018-06-21T12:48:37.395Z,6.10
2018-06-21T12:51:06.599Z,5.80
2018-06-21T12:53:35.838Z,6.70
2018-06-21T12:56:04.878Z,6.07
2018-06-21T12:58:33.983Z,6.50
2018-06-21T13:01:03.129Z,5.67
2018-06-21T13:03:32.316Z,5.67
2018-06-21T13:06:01.469Z,6.17
2018-06-21T13:08:47.494Z,5.27
2018-06-21T13:11:34.059Z,6.27
2018-06-21T13:14:23.121Z,5.57
2018-06-21T13:16:52.214Z,5.23
2018-06-21T13:19:21.644Z,5.27
2018-06-21T13:21:50.821Z,4.77
2018-06-21T13:24:20.025Z,5.80
2018-06-21T13:26:49.217Z,5.50
2018-06-21T13:29:18.486Z,5.33
2018-06-21T13:31:47.638Z,6.20
2018-06-21T13:34:16.823Z,5.60
2018-06-21T13:36:45.951Z,5.20
2018-06-21T13:39:15.123Z,5.47
2018-06-21T13:41:44.233Z,6.47
2018-06-21T13:44:13.410Z,5.90
2018-06-21T13:46:42.663Z,4.80
2018-06-21T13:49:11.802Z,4.97
2018-06-21T13:51:41.203Z,4.50
2018-06-21T13:54:11.267Z,5.20
2018-06-21T13:56:40.943Z,6.47
2018-06-21T13:59:15.826Z,7.87
2018-06-21T14:01:49.122Z,8.00
2018-06-21T14:04:22.533Z,8.10
2018-06-21T14:06:51.950Z,8.23
2018-06-21T14:09:24.094Z,8.60
2018-06-21T14:11:53.330Z,8.17
2018-06-21T14:14:22.561Z,7.80
2018-06-21T14:16:51.696Z,7.60
2018-06-21T14:19:20.987Z,6.83
2018-06-21T14:21:50.024Z,6.60
2018-06-21T14:24:19.229Z,7.30
2018-06-21T14:26:48.446Z,7.00
2018-06-21T14:29:17.578Z,6.57
2018-06-21T14:31:46.954Z,5.43
2018-06-21T14:34:16.094Z,6.27
2018-06-21T14:36:45.219Z,5.63
2018-06-21T14:39:14.511Z,5.47
2018-06-21T14:41:43.651Z,5.03
2018-06-21T14:44:12.850Z,5.27
2018-06-21T14:46:42.108Z,5.60
2018-06-21T14:49:12.317Z,5.77
2018-06-21T14:51:41.415Z,5.27
2018-06-21T14:54:10.593Z,4.50
2018-06-21T14:56:39.774Z,5.33
2018-06-21T14:59:08.873Z,5.23
2018-06-21T15:01:38.084Z,5.43
2018-06-21T15:04:07.331Z,6.40
2018-06-21T15:06:36.543Z,5.30
2018-06-21T15:09:10.458Z,4.83
2018-06-21T15:11:39.626Z,5.00
2018-06-21T15:14:16.443Z,4.90
2018-06-21T15:16:45.697Z,5.03
2018-06-21T15:19:14.834Z,5.78
2018-06-21T15:21:44.128Z,5.27
2018-06-21T15:24:13.443Z,6.63
2018-06-21T15:26:42.583Z,5.37
2018-06-21T15:29:11.903Z,5.77
2018-06-21T15:31:41.063Z,5.00
2018-06-21T15:34:10.266Z,4.27
2018-06-21T15:36:39.466Z,5.40
2018-06-21T15:39:19.254Z,4.57
2018-06-21T15:41:48.481Z,5.70
2018-06-21T15:44:18.059Z,5.00
2018-06-21T15:46:47.231Z,4.57
2018-06-21T15:49:16.497Z,4.40
2018-06-21T15:51:45.650Z,4.10
2018-06-21T15:54:14.888Z,3.63
2018-06-21T15:56:44.059Z,4.30
2018-06-21T15:59:13.246Z,4.40
2018-06-21T16:01:42.519Z,3.57
2018-06-21T16:04:11.719Z,4.72
2018-06-21T16:06:40.851Z,3.97
2018-06-21T16:09:10.788Z,4.20
2018-06-21T16:11:40.274Z,3.57
2018-06-21T16:14:09.391Z,4.57
2018-06-21T16:16:38.514Z,4.10
2018-06-21T16:19:07.694Z,4.03
2018-06-21T16:21:36.971Z,4.50
2018-06-21T16:24:06.122Z,4.10
2018-06-21T16:26:35.402Z,4.60
2018-06-21T16:29:04.445Z,4.10
2018-06-21T16:31:33.682Z,3.77
2018-06-21T16:34:02.777Z,4.10
2018-06-21T16:36:31.909Z,3.80
2018-06-21T16:39:01.146Z,6.37
2018-06-21T16:41:30.368Z,4.30
2018-06-21T16:43:59.492Z,4.20
2018-06-21T16:46:29.081Z,3.90
2018-06-21T16:48:59.085Z,5.00
2018-06-21T16:51:29.483Z,4.92
2018-06-21T16:53:59.122Z,4.78
2018-06-21T16:56:28.958Z,4.25
2018-06-21T16:58:59.118Z,3.94
2018-06-21T17:01:29.174Z,4.25
2018-06-21T17:03:59.045Z,4.72
2018-06-21T17:06:29.252Z,3.80
2018-06-21T17:08:59.343Z,4.05
2018-06-21T17:11:29.300Z,4.50
2018-06-21T17:13:59.246Z,4.55
2018-06-21T17:16:29.345Z,4.55
2018-06-21T17:18:59.310Z,4.47
2018-06-21T17:21:29.366Z,5.45
2018-06-21T17:23:59.398Z,4.67
2018-06-21T17:26:29.361Z,4.55
2018-06-21T17:28:59.422Z,4.50
2018-06-21T17:31:29.546Z,3.98
2018-06-21T17:33:59.425Z,4.00
2018-06-21T17:36:29.406Z,4.55
2018-06-21T17:38:59.387Z,4.47
2018-06-21T17:41:29.458Z,4.97
2018-06-21T17:43:59.525Z,4.50
2018-06-21T17:46:29.602Z,22.52
2018-06-21T18:10:31.522Z,4.57
2018-06-21T18:13:00.842Z,4.10
2018-06-21T18:15:30.081Z,4.00
2018-06-21T18:17:59.791Z,3.58
2018-06-21T18:20:29.906Z,3.62
2018-06-21T18:22:59.978Z,3.85
2018-06-21T18:25:29.946Z,3.30
2018-06-21T18:28:01.109Z,4.80
2018-06-21T18:30:30.310Z,4.60
2018-06-21T18:32:59.817Z,4.75
2018-06-21T18:35:29.919Z,4.62
2018-06-21T18:38:00.015Z,5.25
2018-06-21T18:40:29.846Z,4.58
2018-06-21T18:42:59.938Z,4.17
2018-06-21T18:45:29.998Z,4.85
2018-06-21T18:48:00.028Z,4.92
2018-06-21T18:50:30.088Z,4.62
2018-06-21T18:53:00.019Z,4.65
2018-06-21T18:55:30.091Z,5.42
2018-06-21T18:58:00.143Z,4.90
2018-06-21T19:00:30.154Z,5.00
2018-06-21T19:03:00.174Z,5.50
2018-06-21T19:05:30.194Z,4.35
2018-06-21T19:08:05.481Z,4.37
2018-06-21T19:10:40.059Z,4.92
2018-06-21T19:13:09.166Z,4.70
2018-06-21T19:15:38.238Z,4.20
2018-06-21T19:18:07.413Z,4.20
2018-06-21T19:20:36.551Z,4.60
2018-06-21T19:23:05.810Z,4.00
2018-06-21T19:25:35.075Z,4.53
2018-06-21T19:28:04.186Z,3.33
2018-06-21T19:30:33.382Z,2.90
2018-06-21T19:33:02.514Z,3.80
2018-06-21T19:35:31.654Z,3.03
2018-06-21T19:38:00.748Z,3.33
2018-06-21T19:40:30.410Z,3.12
2018-06-21T19:43:00.593Z,2.65
2018-06-21T19:45:30.671Z,3.25
2018-06-21T19:48:00.478Z,3.15
2018-06-21T19:50:30.621Z,3.15
2018-06-21T19:53:00.754Z,3.35
2018-06-21T19:55:30.812Z,3.47
2018-06-21T19:58:00.631Z,7.22
2018-06-21T20:00:30.651Z,3.30
2018-06-21T20:03:01.006Z,2.80
2018-06-21T20:05:30.846Z,3.95
2018-06-21T20:08:00.778Z,4.20
2018-06-21T20:10:30.802Z,4.28
2018-06-21T20:13:06.510Z,4.30
2018-06-21T20:15:53.758Z,3.72
2018-06-21T20:18:23.280Z,4.67
2018-06-21T20:20:52.429Z,4.33
2018-06-21T20:23:21.625Z,5.20
2018-06-21T20:25:50.835Z,5.73
2018-06-21T20:28:20.058Z,6.20
2018-06-21T20:30:49.186Z,6.80
2018-06-21T20:33:18.365Z,7.20
2018-06-21T20:35:47.513Z,7.47
2018-06-21T20:38:16.762Z,7.23
2018-06-21T20:40:45.789Z,7.00
2018-06-21T20:43:14.942Z,6.13
2018-06-21T20:45:44.094Z,7.07
2018-06-21T20:48:13.143Z,7.40
2018-06-21T20:50:42.301Z,8.10
2018-06-21T20:53:11.543Z,8.00
2018-06-21T20:55:40.735Z,8.17
2018-06-21T20:58:09.880Z,7.70
2018-06-21T21:00:39.078Z,7.45
2018-06-21T21:03:08.498Z,7.33
2018-06-21T21:05:37.665Z,8.60
2018-06-21T21:08:06.858Z,7.87
2018-06-21T21:10:35.990Z,7.50
2018-06-21T21:13:05.310Z,8.03
2018-06-21T21:15:34.594Z,9.10
2018-06-21T21:18:03.806Z,7.60
2018-06-21T21:20:33.090Z,9.15
2018-06-21T21:23:02.970Z,7.87
2018-06-21T21:25:33.052Z,8.18
2018-06-21T21:28:03.098Z,7.80
2018-06-21T21:30:33.215Z,7.58
2018-06-21T21:33:03.151Z,8.10
2018-06-21T21:35:33.229Z,6.55
2018-06-21T21:38:03.270Z,8.30
2018-06-21T21:40:33.307Z,4.83
2018-06-21T21:43:03.213Z,5.92
2018-06-21T21:45:33.233Z,5.78
2018-06-21T21:48:03.284Z,5.08
2018-06-21T21:50:33.196Z,4.87
2018-06-21T21:53:03.280Z,4.50
2018-06-21T21:55:33.390Z,3.85
2018-06-21T21:58:03.429Z,4.35
2018-06-21T22:00:52.478Z,4.42
2018-06-21T22:03:21.619Z,4.43
2018-06-21T22:05:50.845Z,3.70
2018-06-21T22:08:19.978Z,3.63
2018-06-21T22:10:49.474Z,3.83
2018-06-21T22:13:19.030Z,3.90
2018-06-21T22:15:48.030Z,3.40
2018-06-21T22:18:17.158Z,3.10
2018-06-21T22:20:46.354Z,2.77
2018-06-21T22:23:15.481Z,2.87
2018-06-21T22:25:44.663Z,3.23
2018-06-21T22:28:13.787Z,3.10
2018-06-21T22:30:42.958Z,2.80
2018-06-21T22:33:12.131Z,2.57
2018-06-21T22:35:41.257Z,2.77
2018-06-21T22:38:10.446Z,3.13
2018-06-21T22:40:39.823Z,3.30
2018-06-21T22:43:08.873Z,3.05
2018-06-21T22:45:38.050Z,3.65
2018-06-21T22:48:07.314Z,2.93
2018-06-21T22:50:36.459Z,2.40
2018-06-21T22:53:05.482Z,2.57
2018-06-21T22:55:34.582Z,2.60
2018-06-21T22:58:04.186Z,2.47
2018-06-21T23:00:34.130Z,2.80
2018-06-21T23:03:04.264Z,2.70
2018-06-21T23:05:34.370Z,2.50
2018-06-21T23:08:04.233Z,2.60
2018-06-21T23:10:34.389Z,2.40
2018-06-21T23:13:04.415Z,3.25
2018-06-21T23:15:34.400Z,2.22
2018-06-21T23:18:04.362Z,2.73
2018-06-21T23:20:34.447Z,2.08
2018-06-21T23:23:04.556Z,1.95
2018-06-21T23:25:34.534Z,1.77
2018-06-21T23:28:04.511Z,2.50
2018-06-21T23:30:34.556Z,2.15
2018-06-21T23:33:04.566Z,2.42
2018-06-21T23:35:34.666Z,2.77
2018-06-21T23:38:04.864Z,1.98
2018-06-21T23:40:34.622Z,2.20
2018-06-21T23:43:04.764Z,2.12
2018-06-21T23:45:34.815Z,2.30
2018-06-21T23:48:04.847Z,2.00
2018-06-21T23:50:34.802Z,2.10
2018-06-21T23:53:04.970Z,1.90
2018-06-21T23:55:34.734Z,2.23
2018-06-21T23:58:05.007Z,2.10
